createdAt,value
2019-06-26T00:03:37.207Z,4.87
2019-06-26T00:08:41.637Z,5.28
2019-06-26T00:13:46.688Z,4.90
2019-06-26T00:18:51.733Z,5.20
2019-06-26T00:23:56.253Z,5.37
2019-06-26T00:29:01.115Z,4.97
2019-06-26T00:34:05.918Z,5.30
2019-06-26T00:39:10.501Z,6.03
2019-06-26T00:44:15.828Z,5.60
2019-06-26T00:49:21.224Z,5.33
2019-06-26T00:54:26.585Z,5.25
2019-06-26T00:59:31.006Z,5.62
2019-06-26T01:04:39.397Z,5.83
2019-06-26T01:09:44.849Z,5.45
2019-06-26T01:14:49.402Z,5.67
2019-06-26T01:19:54.275Z,5.58
2019-06-26T01:24:58.943Z,5.97
2019-06-26T01:30:03.771Z,5.53
2019-06-26T01:35:08.865Z,5.65
2019-06-26T01:40:14.418Z,5.22
2019-06-26T01:45:19.624Z,5.67
2019-06-26T01:50:24.404Z,5.92
2019-06-26T01:55:29.420Z,5.90
2019-06-26T02:00:34.441Z,5.65
2019-06-26T02:05:39.724Z,6.32
2019-06-26T02:10:44.700Z,5.42
2019-06-26T02:15:49.464Z,6.05
2019-06-26T02:20:54.035Z,6.53
2019-06-26T02:25:59.557Z,5.72
2019-06-26T02:31:04.403Z,5.80
2019-06-26T02:36:10.200Z,6.15
2019-06-26T02:41:14.874Z,5.70
2019-06-26T02:46:20.347Z,5.55
2019-06-26T02:51:25.795Z,6.60
2019-06-26T02:56:30.682Z,7.45
2019-06-26T03:01:35.929Z,7.10
2019-06-26T03:06:40.711Z,7.37
2019-06-26T03:11:45.431Z,7.05
2019-06-26T03:16:49.829Z,8.33
2019-06-26T03:21:54.616Z,7.55
2019-06-26T03:27:00.465Z,7.67
2019-06-26T03:32:05.540Z,7.70
2019-06-26T03:37:10.882Z,7.62
2019-06-26T03:42:16.348Z,7.95
2019-06-26T03:47:20.731Z,7.42
2019-06-26T03:52:25.164Z,8.45
2019-06-26T03:57:35.159Z,6.47
2019-06-26T04:02:37.904Z,6.92
2019-06-26T04:07:42.635Z,7.12
2019-06-26T04:12:47.024Z,6.45
2019-06-26T04:17:52.465Z,6.92
2019-06-26T04:22:57.469Z,6.20
2019-06-26T04:28:06.345Z,6.97
2019-06-26T04:33:10.164Z,6.50
2019-06-26T04:38:14.810Z,5.87
2019-06-26T04:43:19.496Z,5.67
2019-06-26T04:48:24.837Z,5.90
2019-06-26T04:53:29.366Z,5.45
2019-06-26T04:58:34.549Z,5.55
2019-06-26T05:03:39.521Z,5.33
2019-06-26T05:08:44.418Z,5.70
2019-06-26T05:14:20.779Z,4.92
2019-06-26T05:19:25.575Z,5.30
2019-06-26T05:24:31.324Z,5.08
2019-06-26T05:29:36.429Z,5.37
2019-06-26T05:34:41.824Z,5.95
2019-06-26T05:39:46.199Z,5.08
2019-06-26T05:44:50.620Z,4.05
2019-06-26T05:49:55.048Z,6.20
2019-06-26T05:54:59.938Z,6.67
2019-06-26T06:00:04.890Z,6.00
2019-06-26T06:05:10.073Z,6.75
2019-06-26T06:10:15.429Z,5.83
2019-06-26T06:15:21.083Z,5.40
2019-06-26T06:20:32.783Z,4.80
2019-06-26T06:25:38.057Z,5.35
2019-06-26T06:30:43.391Z,5.40
2019-06-26T06:35:47.873Z,4.45
2019-06-26T06:40:52.170Z,5.30
2019-06-26T06:45:56.926Z,5.00
2019-06-26T06:51:01.866Z,4.95
2019-06-26T06:56:06.579Z,4.25
2019-06-26T07:01:10.953Z,4.33
2019-06-26T07:06:16.131Z,4.10
2019-06-26T07:11:20.572Z,4.35
2019-06-26T07:16:25.154Z,4.22
2019-06-26T07:21:29.965Z,4.10
2019-06-26T07:26:34.294Z,4.17
2019-06-26T07:31:38.724Z,4.20
2019-06-26T07:36:43.680Z,3.87
2019-06-26T07:41:48.431Z,4.12
2019-06-26T07:46:53.108Z,4.10
2019-06-26T07:51:57.451Z,4.33
2019-06-26T07:57:02.437Z,3.85
2019-06-26T08:02:06.874Z,3.87
2019-06-26T08:07:11.641Z,4.25
2019-06-26T08:12:16.626Z,4.12
2019-06-26T08:17:21.649Z,3.65
2019-06-26T08:22:26.612Z,3.83
2019-06-26T08:27:31.343Z,4.20
2019-06-26T08:32:35.698Z,4.20
2019-06-26T08:37:40.113Z,4.25
2019-06-26T08:42:45.668Z,4.03
2019-06-26T08:47:50.443Z,4.20
2019-06-26T08:52:54.861Z,4.45
2019-06-26T08:57:59.984Z,4.58
2019-06-26T09:03:04.857Z,4.90
2019-06-26T09:08:09.957Z,6.10
2019-06-26T09:13:15.373Z,4.60
2019-06-26T09:18:34.283Z,4.47
2019-06-26T09:23:26.544Z,5.03
2019-06-26T09:28:31.690Z,4.93
2019-06-26T09:33:36.002Z,4.92
2019-06-26T09:38:40.892Z,4.78
2019-06-26T09:43:45.957Z,4.62
2019-06-26T09:48:53.176Z,5.03
2019-06-26T09:53:56.979Z,5.42
2019-06-26T09:59:01.731Z,5.62
2019-06-26T10:04:06.309Z,5.50
2019-06-26T10:09:11.317Z,5.58
2019-06-26T10:14:16.190Z,6.03
2019-06-26T10:19:20.790Z,5.60
2019-06-26T10:24:25.721Z,5.30
2019-06-26T10:29:31.523Z,5.87
2019-06-26T10:34:36.288Z,6.25
2019-06-26T10:39:40.742Z,7.28
2019-06-26T10:44:45.786Z,6.83
2019-06-26T10:49:50.202Z,6.62
2019-06-26T10:54:54.798Z,6.30
2019-06-26T10:59:59.251Z,6.00
2019-06-26T11:05:03.985Z,7.05
2019-06-26T11:10:09.015Z,6.87
2019-06-26T11:15:15.058Z,6.85
2019-06-26T11:20:19.873Z,7.10
2019-06-26T11:25:27.132Z,6.83
2019-06-26T11:30:36.880Z,6.37
2019-06-26T11:35:42.772Z,7.17
2019-06-26T11:40:49.690Z,6.80
2019-06-26T11:45:54.522Z,6.90
2019-06-26T11:51:10.328Z,6.85
2019-06-26T11:56:16.117Z,6.50
2019-06-26T12:01:20.925Z,7.03
2019-06-26T12:06:25.743Z,7.25
2019-06-26T12:11:31.072Z,6.83
2019-06-26T12:16:35.590Z,5.83
2019-06-26T12:21:40.622Z,6.15
2019-06-26T12:26:45.494Z,6.00
2019-06-26T12:31:50.238Z,5.65
2019-06-26T12:36:55.333Z,6.40
2019-06-26T12:42:00.096Z,6.45
2019-06-26T12:47:04.897Z,6.50
2019-06-26T12:52:09.388Z,6.10
2019-06-26T12:57:14.015Z,5.72
2019-06-26T13:02:18.937Z,5.42
2019-06-26T13:07:23.525Z,4.60
2019-06-26T13:12:28.155Z,4.90
2019-06-26T13:17:32.978Z,5.80
2019-06-26T13:22:37.968Z,6.00
2019-06-26T13:27:43.126Z,5.83
2019-06-26T13:32:48.139Z,6.05
2019-06-26T13:37:53.089Z,5.53
2019-06-26T13:42:57.465Z,6.05
2019-06-26T13:48:03.116Z,5.93
2019-06-26T13:53:07.588Z,6.15
2019-06-26T13:58:12.113Z,5.78
2019-06-26T14:03:17.488Z,6.65
2019-06-26T14:08:21.856Z,6.20
2019-06-26T14:13:26.393Z,6.00
2019-06-26T14:18:34.570Z,5.20
2019-06-26T14:23:39.041Z,6.50
2019-06-26T14:28:44.053Z,5.70
2019-06-26T14:33:48.941Z,5.97
2019-06-26T14:38:53.671Z,5.60
2019-06-26T14:43:58.455Z,5.78
2019-06-26T14:49:03.149Z,5.97
2019-06-26T14:54:08.399Z,5.00
2019-06-26T14:59:13.047Z,5.35
2019-06-26T15:04:18.031Z,5.72
2019-06-26T15:09:22.956Z,6.27
2019-06-26T15:14:28.041Z,5.60
2019-06-26T15:19:32.551Z,5.78
2019-06-26T15:24:37.747Z,5.40
2019-06-26T15:29:42.554Z,6.15
2019-06-26T15:34:49.046Z,5.83
2019-06-26T15:39:53.387Z,5.83
2019-06-26T15:44:58.461Z,5.83
2019-06-26T15:50:03.285Z,6.42
2019-06-26T15:55:08.340Z,6.30
2019-06-26T16:00:13.799Z,6.30
2019-06-26T16:05:18.479Z,6.72
2019-06-26T16:10:22.884Z,6.55
2019-06-26T16:15:27.797Z,6.22
2019-06-26T16:20:32.817Z,6.37
2019-06-26T16:25:37.870Z,6.45
2019-06-26T16:30:43.342Z,6.45
2019-06-26T16:35:48.042Z,6.97
2019-06-26T16:40:52.490Z,7.30
2019-06-26T16:45:57.149Z,7.27
2019-06-26T16:51:01.989Z,6.78
2019-06-26T16:56:06.860Z,7.30
2019-06-26T17:01:14.172Z,7.78
2019-06-26T17:06:18.621Z,6.75
2019-06-26T17:11:23.372Z,6.87
2019-06-26T17:16:27.983Z,6.58
2019-06-26T17:21:38.197Z,7.33
2019-06-26T17:26:45.494Z,6.47
2019-06-26T17:31:50.829Z,7.42
2019-06-26T17:36:56.137Z,6.75
2019-06-26T17:42:01.450Z,7.42
2019-06-26T17:47:07.333Z,6.87
2019-06-26T17:52:11.847Z,7.62
2019-06-26T17:57:16.926Z,7.50
2019-06-26T18:02:21.422Z,7.22
2019-06-26T18:07:26.355Z,7.28
2019-06-26T18:12:32.324Z,7.45
2019-06-26T18:17:36.984Z,6.93
2019-06-26T18:22:42.106Z,7.37
2019-06-26T18:27:46.887Z,7.10
2019-06-26T18:32:51.797Z,7.80
2019-06-26T18:37:56.440Z,7.60
2019-06-26T18:43:01.328Z,7.12
2019-06-26T18:48:06.263Z,7.75
2019-06-26T18:53:11.302Z,8.20
2019-06-26T18:58:16.210Z,7.70
2019-06-26T19:03:21.299Z,8.05
2019-06-26T19:08:26.264Z,7.25
2019-06-26T19:13:31.109Z,7.65
2019-06-26T19:18:35.635Z,7.50
2019-06-26T19:23:40.695Z,7.97
2019-06-26T19:28:45.119Z,8.03
2019-06-26T19:33:50.667Z,7.85
2019-06-26T19:38:57.244Z,8.15
2019-06-26T19:44:02.789Z,7.97
2019-06-26T19:49:08.262Z,7.15
2019-06-26T19:54:26.612Z,6.60
2019-06-26T19:59:19.407Z,6.83
2019-06-26T20:04:25.446Z,6.53
2019-06-26T20:09:30.075Z,7.47
2019-06-26T20:14:43.540Z,6.37
2019-06-26T20:19:48.354Z,6.03
2019-06-26T20:24:52.957Z,6.53
2019-06-26T20:29:57.656Z,5.53
2019-06-26T20:35:02.157Z,6.05
2019-06-26T20:40:07.244Z,5.78
2019-06-26T20:45:12.064Z,6.12
